sensor_id;sensor_type;location;lat;lon;timestamp;P1;durP1;ratioP1;P2;durP2;ratioP2
53505;SDS011;39388;50.936;6.848;2022-10-18T00:00:36;11.98;;;7.28;;
53505;SDS011;39388;50.936;6.848;2022-10-18T00:21:18;8.87;;;7.37;;
53505;SDS011;39388;50.936;6.848;2022-10-18T00:42:38;13.35;;;8.65;;
53505;SDS011;39388;50.936;6.848;2022-10-18T00:45:20;15.53;;;7.90;;
53505;SDS011;39388;50.936;6.848;2022-10-18T00:47:57;9.50;;;7.57;;
53505;SDS011;39388;50.936;6.848;2022-10-18T00:50:43;10.85;;;7.18;;
53505;SDS011;39388;50.936;6.848;2022-10-18T01:17:01;11.85;;;9.10;;
53505;SDS011;39388;50.936;6.848;2022-10-18T01:40:10;11.30;;;7.82;;
53505;SDS011;39388;50.936;6.848;2022-10-18T01:43:09;11.27;;;8.55;;
53505;SDS011;39388;50.936;6.848;2022-10-18T01:45:41;11.88;;;9.02;;
53505;SDS011;39388;50.936;6.848;2022-10-18T01:48:11;11.90;;;8.40;;
53505;SDS011;39388;50.936;6.848;2022-10-18T01:50:42;11.45;;;8.25;;
53505;SDS011;39388;50.936;6.848;2022-10-18T01:53:20;12.27;;;8.77;;
53505;SDS011;39388;50.936;6.848;2022-10-18T02:02:53;13.00;;;9.88;;
53505;SDS011;39388;50.936;6.848;2022-10-18T02:08:24;16.35;;;11.10;;
53505;SDS011;39388;50.936;6.848;2022-10-18T02:11:05;12.27;;;9.68;;
53505;SDS011;39388;50.936;6.848;2022-10-18T02:13:52;16.80;;;9.95;;
53505;SDS011;39388;50.936;6.848;2022-10-18T02:16:44;21.02;;;10.32;;
53505;SDS011;39388;50.936;6.848;2022-10-18T02:21:54;15.07;;;10.60;;
53505;SDS011;39388;50.936;6.848;2022-10-18T02:24:32;13.88;;;9.70;;
53505;SDS011;39388;50.936;6.848;2022-10-18T02:27:05;16.40;;;10.48;;
53505;SDS011;39388;50.936;6.848;2022-10-18T02:29:36;16.77;;;10.70;;
53505;SDS011;39388;50.936;6.848;2022-10-18T02:34:56;14.68;;;10.02;;
53505;SDS011;39388;50.936;6.848;2022-10-18T02:37:32;15.80;;;11.40;;
53505;SDS011;39388;50.936;6.848;2022-10-18T02:40:09;18.73;;;11.07;;
53505;SDS011;39388;50.936;6.848;2022-10-18T02:42:45;20.00;;;11.43;;
53505;SDS011;39388;50.936;6.848;2022-10-18T02:45:18;16.67;;;11.43;;
53505;SDS011;39388;50.936;6.848;2022-10-18T02:47:48;15.60;;;10.60;;
53505;SDS011;39388;50.936;6.848;2022-10-18T02:50:19;15.38;;;10.80;;
53505;SDS011;39388;50.936;6.848;2022-10-18T02:52:49;15.00;;;10.38;;
53505;SDS011;39388;50.936;6.848;2022-10-18T02:55:20;16.02;;;11.13;;
53505;SDS011;39388;50.936;6.848;2022-10-18T02:57:50;19.13;;;11.25;;
53505;SDS011;39388;50.936;6.848;2022-10-18T03:00:20;14.73;;;10.52;;
53505;SDS011;39388;50.936;6.848;2022-10-18T03:02:51;14.27;;;9.95;;
53505;SDS011;39388;50.936;6.848;2022-10-18T03:05:22;17.38;;;10.57;;
53505;SDS011;39388;50.936;6.848;2022-10-18T03:07:55;14.45;;;10.82;;
53505;SDS011;39388;50.936;6.848;2022-10-18T03:10:26;14.93;;;10.75;;
53505;SDS011;39388;50.936;6.848;2022-10-18T03:12:56;15.95;;;10.30;;
53505;SDS011;39388;50.936;6.848;2022-10-18T03:15:27;17.10;;;10.73;;
53505;SDS011;39388;50.936;6.848;2022-10-18T03:17:57;14.63;;;10.05;;
53505;SDS011;39388;50.936;6.848;2022-10-18T03:20:27;15.05;;;9.75;;
53505;SDS011;39388;50.936;6.848;2022-10-18T03:22:58;13.65;;;10.15;;
53505;SDS011;39388;50.936;6.848;2022-10-18T03:25:28;19.10;;;10.32;;
53505;SDS011;39388;50.936;6.848;2022-10-18T03:27:58;13.65;;;9.68;;
53505;SDS011;39388;50.936;6.848;2022-10-18T03:30:29;13.60;;;10.20;;
53505;SDS011;39388;50.936;6.848;2022-10-18T03:32:59;15.73;;;10.48;;
53505;SDS011;39388;50.936;6.848;2022-10-18T03:35:30;14.00;;;10.60;;
53505;SDS011;39388;50.936;6.848;2022-10-18T03:38:00;18.63;;;10.45;;
53505;SDS011;39388;50.936;6.848;2022-10-18T03:40:31;13.05;;;9.55;;
53505;SDS011;39388;50.936;6.848;2022-10-18T03:43:01;13.60;;;10.18;;
53505;SDS011;39388;50.936;6.848;2022-10-18T03:45:31;14.38;;;10.35;;
53505;SDS011;39388;50.936;6.848;2022-10-18T03:48:02;15.23;;;9.65;;
53505;SDS011;39388;50.936;6.848;2022-10-18T03:50:32;16.13;;;10.10;;
53505;SDS011;39388;50.936;6.848;2022-10-18T03:53:03;15.75;;;10.13;;
53505;SDS011;39388;50.936;6.848;2022-10-18T03:55:33;16.15;;;10.85;;
53505;SDS011;39388;50.936;6.848;2022-10-18T03:58:06;17.02;;;11.38;;
53505;SDS011;39388;50.936;6.848;2022-10-18T04:00:36;15.85;;;10.65;;
53505;SDS011;39388;50.936;6.848;2022-10-18T04:03:07;14.05;;;10.27;;
53505;SDS011;39388;50.936;6.848;2022-10-18T04:05:37;14.45;;;10.35;;
53505;SDS011;39388;50.936;6.848;2022-10-18T04:08:07;15.15;;;10.85;;
53505;SDS011;39388;50.936;6.848;2022-10-18T04:10:38;15.10;;;9.55;;
53505;SDS011;39388;50.936;6.848;2022-10-18T04:13:09;15.82;;;9.80;;
53505;SDS011;39388;50.936;6.848;2022-10-18T04:15:39;14.65;;;9.77;;
53505;SDS011;39388;50.936;6.848;2022-10-18T04:18:09;14.73;;;10.02;;
53505;SDS011;39388;50.936;6.848;2022-10-18T04:20:40;13.35;;;8.98;;
53505;SDS011;39388;50.936;6.848;2022-10-18T04:23:10;15.88;;;10.18;;
53505;SDS011;39388;50.936;6.848;2022-10-18T04:25:40;15.18;;;10.77;;
53505;SDS011;39388;50.936;6.848;2022-10-18T04:28:11;14.55;;;10.35;;
53505;SDS011;39388;50.936;6.848;2022-10-18T04:30:41;13.60;;;8.95;;
53505;SDS011;39388;50.936;6.848;2022-10-18T04:33:11;16.88;;;9.98;;
53505;SDS011;39388;50.936;6.848;2022-10-18T04:35:42;16.20;;;10.07;;
53505;SDS011;39388;50.936;6.848;2022-10-18T04:38:12;15.27;;;9.82;;
53505;SDS011;39388;50.936;6.848;2022-10-18T04:40:43;14.70;;;9.55;;
53505;SDS011;39388;50.936;6.848;2022-10-18T04:43:13;15.52;;;10.30;;
53505;SDS011;39388;50.936;6.848;2022-10-18T04:45:44;16.48;;;9.70;;
53505;SDS011;39388;50.936;6.848;2022-10-18T04:48:16;15.60;;;10.20;;
53505;SDS011;39388;50.936;6.848;2022-10-18T04:50:47;15.73;;;10.45;;
53505;SDS011;39388;50.936;6.848;2022-10-18T04:53:18;15.73;;;10.77;;
53505;SDS011;39388;50.936;6.848;2022-10-18T04:55:49;17.48;;;10.88;;
53505;SDS011;39388;50.936;6.848;2022-10-18T04:58:20;14.40;;;10.05;;
53505;SDS011;39388;50.936;6.848;2022-10-18T05:00:50;17.50;;;11.25;;
53505;SDS011;39388;50.936;6.848;2022-10-18T05:03:21;15.32;;;10.25;;
53505;SDS011;39388;50.936;6.848;2022-10-18T05:05:51;19.98;;;12.43;;
53505;SDS011;39388;50.936;6.848;2022-10-18T05:08:21;17.10;;;12.02;;
53505;SDS011;39388;50.936;6.848;2022-10-18T05:10:52;19.38;;;12.23;;
53505;SDS011;39388;50.936;6.848;2022-10-18T05:13:22;20.63;;;12.95;;
53505;SDS011;39388;50.936;6.848;2022-10-18T05:15:53;18.60;;;12.05;;
53505;SDS011;39388;50.936;6.848;2022-10-18T05:18:23;22.50;;;13.30;;
53505;SDS011;39388;50.936;6.848;2022-10-18T05:20:53;20.80;;;12.75;;
53505;SDS011;39388;50.936;6.848;2022-10-18T05:23:24;18.90;;;11.98;;
53505;SDS011;39388;50.936;6.848;2022-10-18T05:25:59;18.67;;;11.90;;
53505;SDS011;39388;50.936;6.848;2022-10-18T05:28:31;22.35;;;12.90;;
53505;SDS011;39388;50.936;6.848;2022-10-18T05:31:03;21.58;;;12.25;;
53505;SDS011;39388;50.936;6.848;2022-10-18T05:33:34;22.30;;;13.05;;
53505;SDS011;39388;50.936;6.848;2022-10-18T05:36:05;20.10;;;12.25;;
53505;SDS011;39388;50.936;6.848;2022-10-18T05:38:39;22.80;;;12.88;;
53505;SDS011;39388;50.936;6.848;2022-10-18T05:41:11;25.48;;;13.45;;
53505;SDS011;39388;50.936;6.848;2022-10-18T05:43:42;21.25;;;12.57;;
53505;SDS011;39388;50.936;6.848;2022-10-18T05:46:12;20.67;;;11.98;;
53505;SDS011;39388;50.936;6.848;2022-10-18T05:48:43;23.23;;;12.70;;
53505;SDS011;39388;50.936;6.848;2022-10-18T05:51:13;22.42;;;12.80;;
53505;SDS011;39388;50.936;6.848;2022-10-18T05:53:44;22.92;;;12.90;;
53505;SDS011;39388;50.936;6.848;2022-10-18T05:56:14;20.65;;;12.13;;
53505;SDS011;39388;50.936;6.848;2022-10-18T05:58:48;21.52;;;12.38;;
53505;SDS011;39388;50.936;6.848;2022-10-18T06:01:19;21.17;;;12.75;;
53505;SDS011;39388;50.936;6.848;2022-10-18T06:03:50;20.80;;;12.27;;
53505;SDS011;39388;50.936;6.848;2022-10-18T06:06:20;23.08;;;12.68;;
53505;SDS011;39388;50.936;6.848;2022-10-18T06:08:51;19.85;;;11.88;;
53505;SDS011;39388;50.936;6.848;2022-10-18T06:11:22;18.17;;;10.93;;
53505;SDS011;39388;50.936;6.848;2022-10-18T06:13:52;18.10;;;11.50;;
53505;SDS011;39388;50.936;6.848;2022-10-18T06:16:23;16.65;;;10.98;;
53505;SDS011;39388;50.936;6.848;2022-10-18T06:18:55;19.67;;;11.77;;
53505;SDS011;39388;50.936;6.848;2022-10-18T06:21:26;21.17;;;11.75;;
53505;SDS011;39388;50.936;6.848;2022-10-18T06:23:57;19.70;;;11.85;;
53505;SDS011;39388;50.936;6.848;2022-10-18T06:26:28;18.50;;;11.50;;
53505;SDS011;39388;50.936;6.848;2022-10-18T06:28:58;20.10;;;12.23;;
53505;SDS011;39388;50.936;6.848;2022-10-18T06:31:29;18.25;;;11.48;;
53505;SDS011;39388;50.936;6.848;2022-10-18T06:33:59;20.98;;;11.77;;
53505;SDS011;39388;50.936;6.848;2022-10-18T06:36:30;21.35;;;11.93;;
53505;SDS011;39388;50.936;6.848;2022-10-18T06:39:00;22.65;;;11.60;;
53505;SDS011;39388;50.936;6.848;2022-10-18T06:41:31;16.88;;;11.13;;
53505;SDS011;39388;50.936;6.848;2022-10-18T06:44:01;19.65;;;11.55;;
53505;SDS011;39388;50.936;6.848;2022-10-18T06:46:43;18.27;;;11.00;;
53505;SDS011;39388;50.936;6.848;2022-10-18T06:49:14;20.48;;;11.57;;
53505;SDS011;39388;50.936;6.848;2022-10-18T06:51:45;16.05;;;10.15;;
53505;SDS011;39388;50.936;6.848;2022-10-18T06:54:15;16.27;;;10.55;;
53505;SDS011;39388;50.936;6.848;2022-10-18T06:56:46;20.48;;;10.45;;
53505;SDS011;39388;50.936;6.848;2022-10-18T06:59:16;20.17;;;11.38;;
53505;SDS011;39388;50.936;6.848;2022-10-18T07:01:47;16.27;;;11.05;;
53505;SDS011;39388;50.936;6.848;2022-10-18T07:04:17;16.50;;;10.10;;
53505;SDS011;39388;50.936;6.848;2022-10-18T07:06:47;17.42;;;11.18;;
53505;SDS011;39388;50.936;6.848;2022-10-18T07:09:18;15.35;;;10.30;;
53505;SDS011;39388;50.936;6.848;2022-10-18T07:11:48;18.25;;;10.68;;
53505;SDS011;39388;50.936;6.848;2022-10-18T07:14:19;21.38;;;12.30;;
53505;SDS011;39388;50.936;6.848;2022-10-18T07:16:49;18.65;;;11.05;;
53505;SDS011;39388;50.936;6.848;2022-10-18T07:19:19;19.33;;;10.65;;
53505;SDS011;39388;50.936;6.848;2022-10-18T07:21:50;17.48;;;10.80;;
53505;SDS011;39388;50.936;6.848;2022-10-18T07:24:20;19.33;;;11.00;;
53505;SDS011;39388;50.936;6.848;2022-10-18T07:26:50;21.45;;;11.02;;
53505;SDS011;39388;50.936;6.848;2022-10-18T07:29:21;20.88;;;11.43;;
53505;SDS011;39388;50.936;6.848;2022-10-18T07:31:51;23.05;;;12.88;;
53505;SDS011;39388;50.936;6.848;2022-10-18T07:34:21;26.75;;;12.98;;
53505;SDS011;39388;50.936;6.848;2022-10-18T07:36:52;30.95;;;14.15;;
53505;SDS011;39388;50.936;6.848;2022-10-18T07:39:22;29.77;;;15.80;;
53505;SDS011;39388;50.936;6.848;2022-10-18T07:41:53;27.65;;;15.40;;
53505;SDS011;39388;50.936;6.848;2022-10-18T07:44:23;26.30;;;14.43;;
53505;SDS011;39388;50.936;6.848;2022-10-18T07:46:54;33.03;;;15.80;;
53505;SDS011;39388;50.936;6.848;2022-10-18T07:49:24;28.42;;;15.60;;
53505;SDS011;39388;50.936;6.848;2022-10-18T07:51:54;30.83;;;15.80;;
53505;SDS011;39388;50.936;6.848;2022-10-18T07:54:25;30.27;;;16.15;;
53505;SDS011;39388;50.936;6.848;2022-10-18T07:56:55;32.05;;;16.17;;
53505;SDS011;39388;50.936;6.848;2022-10-18T07:59:25;31.75;;;17.45;;
53505;SDS011;39388;50.936;6.848;2022-10-18T08:01:56;35.35;;;17.25;;
53505;SDS011;39388;50.936;6.848;2022-10-18T08:04:26;32.53;;;16.23;;
53505;SDS011;39388;50.936;6.848;2022-10-18T08:06:57;33.33;;;17.20;;
53505;SDS011;39388;50.936;6.848;2022-10-18T08:09:27;36.45;;;16.27;;
53505;SDS011;39388;50.936;6.848;2022-10-18T08:11:57;34.35;;;16.90;;
53505;SDS011;39388;50.936;6.848;2022-10-18T08:14:28;33.28;;;16.55;;
53505;SDS011;39388;50.936;6.848;2022-10-18T08:16:59;33.55;;;16.00;;
53505;SDS011;39388;50.936;6.848;2022-10-18T08:19:29;28.90;;;15.68;;
53505;SDS011;39388;50.936;6.848;2022-10-18T08:21:59;29.40;;;15.68;;
53505;SDS011;39388;50.936;6.848;2022-10-18T08:24:30;29.17;;;15.57;;
53505;SDS011;39388;50.936;6.848;2022-10-18T08:27:00;33.33;;;16.23;;
53505;SDS011;39388;50.936;6.848;2022-10-18T08:29:32;32.95;;;15.95;;
53505;SDS011;39388;50.936;6.848;2022-10-18T08:32:02;29.77;;;16.15;;
53505;SDS011;39388;50.936;6.848;2022-10-18T08:34:33;33.85;;;16.45;;
53505;SDS011;39388;50.936;6.848;2022-10-18T08:37:04;28.27;;;15.77;;
53505;SDS011;39388;50.936;6.848;2022-10-18T08:39:34;34.28;;;16.98;;
53505;SDS011;39388;50.936;6.848;2022-10-18T08:44:57;32.03;;;16.93;;
53505;SDS011;39388;50.936;6.848;2022-10-18T08:47:34;35.00;;;17.00;;
53505;SDS011;39388;50.936;6.848;2022-10-18T08:55:48;46.25;;;19.05;;
53505;SDS011;39388;50.936;6.848;2022-10-18T08:58:22;48.20;;;19.08;;
53505;SDS011;39388;50.936;6.848;2022-10-18T09:06:38;57.40;;;22.80;;
53505;SDS011;39388;50.936;6.848;2022-10-18T09:34:01;52.42;;;25.02;;
53505;SDS011;39388;50.936;6.848;2022-10-18T09:36:37;52.53;;;25.77;;
53505;SDS011;39388;50.936;6.848;2022-10-18T09:39:10;54.50;;;25.67;;
53505;SDS011;39388;50.936;6.848;2022-10-18T09:41:53;49.90;;;25.17;;
53505;SDS011;39388;50.936;6.848;2022-10-18T09:47:33;51.17;;;24.75;;
53505;SDS011;39388;50.936;6.848;2022-10-18T09:50:28;50.88;;;22.15;;
53505;SDS011;39388;50.936;6.848;2022-10-18T09:58:31;46.03;;;23.42;;
53505;SDS011;39388;50.936;6.848;2022-10-18T10:03:45;49.38;;;22.60;;
53505;SDS011;39388;50.936;6.848;2022-10-18T10:06:16;47.70;;;24.40;;
53505;SDS011;39388;50.936;6.848;2022-10-18T10:08:58;49.90;;;24.50;;
53505;SDS011;39388;50.936;6.848;2022-10-18T10:11:35;46.25;;;23.27;;
53505;SDS011;39388;50.936;6.848;2022-10-18T10:14:11;46.20;;;22.30;;
53505;SDS011;39388;50.936;6.848;2022-10-18T10:17:01;43.67;;;22.65;;
53505;SDS011;39388;50.936;6.848;2022-10-18T10:19:36;42.78;;;22.02;;
53505;SDS011;39388;50.936;6.848;2022-10-18T10:22:37;47.08;;;24.50;;
53505;SDS011;39388;50.936;6.848;2022-10-18T10:25:29;37.47;;;20.95;;
53505;SDS011;39388;50.936;6.848;2022-10-18T10:28:03;39.95;;;22.05;;
53505;SDS011;39388;50.936;6.848;2022-10-18T10:30:36;44.88;;;23.38;;
53505;SDS011;39388;50.936;6.848;2022-10-18T10:33:27;43.58;;;22.77;;
53505;SDS011;39388;50.936;6.848;2022-10-18T10:36:00;43.95;;;23.92;;
53505;SDS011;39388;50.936;6.848;2022-10-18T10:38:33;39.33;;;21.63;;
53505;SDS011;39388;50.936;6.848;2022-10-18T10:41:03;41.72;;;21.75;;
53505;SDS011;39388;50.936;6.848;2022-10-18T10:43:35;42.83;;;22.92;;
53505;SDS011;39388;50.936;6.848;2022-10-18T10:46:09;44.08;;;23.58;;
53505;SDS011;39388;50.936;6.848;2022-10-18T10:51:33;45.13;;;24.45;;
53505;SDS011;39388;50.936;6.848;2022-10-18T10:54:10;43.65;;;22.95;;
53505;SDS011;39388;50.936;6.848;2022-10-18T10:56:57;39.95;;;23.27;;
53505;SDS011;39388;50.936;6.848;2022-10-18T11:04:47;45.50;;;22.48;;
53505;SDS011;39388;50.936;6.848;2022-10-18T11:07:26;38.85;;;22.60;;
53505;SDS011;39388;50.936;6.848;2022-10-18T11:10:02;42.08;;;22.83;;
53505;SDS011;39388;50.936;6.848;2022-10-18T11:18:03;47.83;;;24.30;;
53505;SDS011;39388;50.936;6.848;2022-10-18T11:20:44;41.95;;;23.80;;
53505;SDS011;39388;50.936;6.848;2022-10-18T11:23:20;42.50;;;23.00;;
53505;SDS011;39388;50.936;6.848;2022-10-18T11:31:35;46.08;;;27.25;;
53505;SDS011;39388;50.936;6.848;2022-10-18T11:53:49;53.17;;;29.52;;
53505;SDS011;39388;50.936;6.848;2022-10-18T11:59:28;54.75;;;29.70;;
53505;SDS011;39388;50.936;6.848;2022-10-18T12:04:41;52.00;;;29.23;;
53505;SDS011;39388;50.936;6.848;2022-10-18T12:07:17;52.90;;;30.52;;
53505;SDS011;39388;50.936;6.848;2022-10-18T12:09:50;48.58;;;29.25;;
53505;SDS011;39388;50.936;6.848;2022-10-18T12:12:25;49.03;;;28.92;;
53505;SDS011;39388;50.936;6.848;2022-10-18T12:20:02;53.08;;;30.42;;
53505;SDS011;39388;50.936;6.848;2022-10-18T12:22:41;50.58;;;28.48;;
53505;SDS011;39388;50.936;6.848;2022-10-18T12:25:16;52.70;;;30.17;;
53505;SDS011;39388;50.936;6.848;2022-10-18T12:27:53;48.75;;;29.67;;
53505;SDS011;39388;50.936;6.848;2022-10-18T12:33:00;46.50;;;27.33;;
53505;SDS011;39388;50.936;6.848;2022-10-18T12:35:41;53.33;;;29.63;;
53505;SDS011;39388;50.936;6.848;2022-10-18T12:38:24;47.08;;;27.90;;
53505;SDS011;39388;50.936;6.848;2022-10-18T12:40:58;45.30;;;28.00;;
53505;SDS011;39388;50.936;6.848;2022-10-18T12:43:30;49.08;;;27.67;;
53505;SDS011;39388;50.936;6.848;2022-10-18T12:46:06;48.10;;;27.90;;
53505;SDS011;39388;50.936;6.848;2022-10-18T12:48:40;48.25;;;27.33;;
53505;SDS011;39388;50.936;6.848;2022-10-18T12:51:15;51.63;;;27.35;;
53505;SDS011;39388;50.936;6.848;2022-10-18T12:54:07;43.35;;;24.90;;
53505;SDS011;39388;50.936;6.848;2022-10-18T12:56:39;45.17;;;26.98;;
53505;SDS011;39388;50.936;6.848;2022-10-18T13:09:42;43.08;;;24.50;;
53505;SDS011;39388;50.936;6.848;2022-10-18T13:15:41;35.47;;;19.60;;
53505;SDS011;39388;50.936;6.848;2022-10-18T13:21:16;29.63;;;17.88;;
53505;SDS011;39388;50.936;6.848;2022-10-18T13:26:38;27.23;;;17.58;;
53505;SDS011;39388;50.936;6.848;2022-10-18T13:30:04;26.63;;;17.45;;
53505;SDS011;39388;50.936;6.848;2022-10-18T13:33:03;24.52;;;16.90;;
53505;SDS011;39388;50.936;6.848;2022-10-18T13:44:21;19.13;;;13.35;;
53505;SDS011;39388;50.936;6.848;2022-10-18T14:14:05;20.00;;;13.50;;
53505;SDS011;39388;50.936;6.848;2022-10-18T14:16:53;16.65;;;12.95;;
53505;SDS011;39388;50.936;6.848;2022-10-18T14:25:32;19.10;;;12.57;;
53505;SDS011;39388;50.936;6.848;2022-10-18T14:36:12;21.17;;;12.05;;
53505;SDS011;39388;50.936;6.848;2022-10-18T14:38:55;22.10;;;12.60;;
53505;SDS011;39388;50.936;6.848;2022-10-18T14:41:30;19.42;;;12.90;;
53505;SDS011;39388;50.936;6.848;2022-10-18T14:46:48;19.98;;;13.48;;
53505;SDS011;39388;50.936;6.848;2022-10-18T14:49:20;19.00;;;12.48;;
53505;SDS011;39388;50.936;6.848;2022-10-18T14:51:51;19.05;;;12.57;;
53505;SDS011;39388;50.936;6.848;2022-10-18T14:57:00;21.05;;;12.70;;
53505;SDS011;39388;50.936;6.848;2022-10-18T14:59:45;22.15;;;12.23;;
53505;SDS011;39388;50.936;6.848;2022-10-18T15:02:26;21.30;;;12.63;;
53505;SDS011;39388;50.936;6.848;2022-10-18T15:05:07;20.08;;;12.02;;
53505;SDS011;39388;50.936;6.848;2022-10-18T15:07:51;20.92;;;11.98;;
53505;SDS011;39388;50.936;6.848;2022-10-18T15:10:24;17.08;;;11.00;;
53505;SDS011;39388;50.936;6.848;2022-10-18T15:12:58;17.33;;;11.15;;
53505;SDS011;39388;50.936;6.848;2022-10-18T15:15:31;18.73;;;11.02;;
53505;SDS011;39388;50.936;6.848;2022-10-18T15:18:03;19.35;;;11.50;;
53505;SDS011;39388;50.936;6.848;2022-10-18T15:20:36;16.00;;;10.65;;
53505;SDS011;39388;50.936;6.848;2022-10-18T15:25:51;15.63;;;10.68;;
53505;SDS011;39388;50.936;6.848;2022-10-18T15:28:30;19.92;;;10.88;;
53505;SDS011;39388;50.936;6.848;2022-10-18T15:31:05;17.25;;;10.93;;
53505;SDS011;39388;50.936;6.848;2022-10-18T15:33:35;20.83;;;11.23;;
53505;SDS011;39388;50.936;6.848;2022-10-18T15:36:07;21.10;;;11.68;;
53505;SDS011;39388;50.936;6.848;2022-10-18T15:38:39;18.58;;;11.38;;
53505;SDS011;39388;50.936;6.848;2022-10-18T15:46:49;165.55;;;84.15;;
53505;SDS011;39388;50.936;6.848;2022-10-18T15:54:50;13.20;;;6.97;;
53505;SDS011;39388;50.936;6.848;2022-10-18T15:57:21;12.27;;;6.95;;
53505;SDS011;39388;50.936;6.848;2022-10-18T15:59:53;14.52;;;7.35;;
53505;SDS011;39388;50.936;6.848;2022-10-18T16:02:27;13.43;;;7.75;;
53505;SDS011;39388;50.936;6.848;2022-10-18T16:04:58;13.52;;;6.82;;
53505;SDS011;39388;50.936;6.848;2022-10-18T16:07:29;15.32;;;6.72;;
53505;SDS011;39388;50.936;6.848;2022-10-18T16:09:59;13.07;;;6.60;;
53505;SDS011;39388;50.936;6.848;2022-10-18T16:12:30;13.20;;;6.15;;
53505;SDS011;39388;50.936;6.848;2022-10-18T16:15:00;11.27;;;6.78;;
53505;SDS011;39388;50.936;6.848;2022-10-18T16:17:30;11.25;;;6.82;;
53505;SDS011;39388;50.936;6.848;2022-10-18T16:20:01;11.48;;;6.13;;
53505;SDS011;39388;50.936;6.848;2022-10-18T16:22:31;11.77;;;6.07;;
53505;SDS011;39388;50.936;6.848;2022-10-18T16:25:02;11.48;;;5.40;;
53505;SDS011;39388;50.936;6.848;2022-10-18T16:27:32;8.93;;;5.80;;
53505;SDS011;39388;50.936;6.848;2022-10-18T16:30:13;9.15;;;5.88;;
53505;SDS011;39388;50.936;6.848;2022-10-18T16:32:47;12.07;;;5.32;;
53505;SDS011;39388;50.936;6.848;2022-10-18T16:35:18;13.50;;;6.97;;
53505;SDS011;39388;50.936;6.848;2022-10-18T16:37:48;7.72;;;5.38;;
53505;SDS011;39388;50.936;6.848;2022-10-18T16:40:22;10.05;;;5.82;;
53505;SDS011;39388;50.936;6.848;2022-10-18T16:42:54;10.40;;;5.47;;
53505;SDS011;39388;50.936;6.848;2022-10-18T16:45:25;10.60;;;5.90;;
53505;SDS011;39388;50.936;6.848;2022-10-18T16:47:55;9.38;;;5.68;;
53505;SDS011;39388;50.936;6.848;2022-10-18T16:50:25;15.23;;;6.03;;
53505;SDS011;39388;50.936;6.848;2022-10-18T16:52:56;7.55;;;4.75;;
53505;SDS011;39388;50.936;6.848;2022-10-18T16:55:26;12.95;;;6.07;;
53505;SDS011;39388;50.936;6.848;2022-10-18T16:57:57;14.55;;;6.22;;
53505;SDS011;39388;50.936;6.848;2022-10-18T17:00:27;12.27;;;6.50;;
53505;SDS011;39388;50.936;6.848;2022-10-18T17:02:58;11.63;;;6.20;;
53505;SDS011;39388;50.936;6.848;2022-10-18T17:05:54;12.00;;;5.90;;
53505;SDS011;39388;50.936;6.848;2022-10-18T17:08:31;13.37;;;6.97;;
53505;SDS011;39388;50.936;6.848;2022-10-18T17:11:06;12.25;;;6.80;;
53505;SDS011;39388;50.936;6.848;2022-10-18T17:14:35;15.80;;;8.45;;
53505;SDS011;39388;50.936;6.848;2022-10-18T17:17:47;59.85;;;34.55;;
53505;SDS011;39388;50.936;6.848;2022-10-18T17:21:24;108.72;;;54.95;;
53505;SDS011;39388;50.936;6.848;2022-10-18T17:25:19;122.93;;;59.70;;
53505;SDS011;39388;50.936;6.848;2022-10-18T17:28:54;14.25;;;9.07;;
53505;SDS011;39388;50.936;6.848;2022-10-18T17:31:29;16.13;;;9.30;;
53505;SDS011;39388;50.936;6.848;2022-10-18T17:34:01;16.77;;;8.43;;
53505;SDS011;39388;50.936;6.848;2022-10-18T17:36:32;18.90;;;8.55;;
53505;SDS011;39388;50.936;6.848;2022-10-18T17:39:03;15.43;;;8.88;;
53505;SDS011;39388;50.936;6.848;2022-10-18T17:41:33;15.85;;;8.10;;
53505;SDS011;39388;50.936;6.848;2022-10-18T17:44:04;14.38;;;8.25;;
53505;SDS011;39388;50.936;6.848;2022-10-18T17:46:34;19.08;;;9.20;;
53505;SDS011;39388;50.936;6.848;2022-10-18T17:49:05;13.70;;;8.18;;
53505;SDS011;39388;50.936;6.848;2022-10-18T17:51:38;17.05;;;8.10;;
53505;SDS011;39388;50.936;6.848;2022-10-18T17:54:10;17.98;;;9.18;;
53505;SDS011;39388;50.936;6.848;2022-10-18T17:56:41;16.13;;;8.80;;
53505;SDS011;39388;50.936;6.848;2022-10-18T17:59:14;16.33;;;8.95;;
53505;SDS011;39388;50.936;6.848;2022-10-18T18:01:44;12.45;;;7.93;;
53505;SDS011;39388;50.936;6.848;2022-10-18T18:04:15;14.07;;;8.10;;
53505;SDS011;39388;50.936;6.848;2022-10-18T18:06:46;15.85;;;8.32;;
53505;SDS011;39388;50.936;6.848;2022-10-18T18:09:18;15.75;;;8.35;;
53505;SDS011;39388;50.936;6.848;2022-10-18T18:11:59;15.88;;;8.75;;
53505;SDS011;39388;50.936;6.848;2022-10-18T18:14:30;17.95;;;9.57;;
53505;SDS011;39388;50.936;6.848;2022-10-18T18:17:01;19.08;;;9.10;;
53505;SDS011;39388;50.936;6.848;2022-10-18T18:19:31;17.95;;;9.82;;
53505;SDS011;39388;50.936;6.848;2022-10-18T18:22:02;15.88;;;9.27;;
53505;SDS011;39388;50.936;6.848;2022-10-18T18:24:33;16.45;;;9.82;;
53505;SDS011;39388;50.936;6.848;2022-10-18T18:27:04;17.42;;;9.75;;
53505;SDS011;39388;50.936;6.848;2022-10-18T18:29:34;15.63;;;9.75;;
53505;SDS011;39388;50.936;6.848;2022-10-18T18:32:05;14.88;;;9.52;;
53505;SDS011;39388;50.936;6.848;2022-10-18T18:34:35;20.13;;;9.38;;
53505;SDS011;39388;50.936;6.848;2022-10-18T18:37:07;15.73;;;9.52;;
53505;SDS011;39388;50.936;6.848;2022-10-18T18:39:38;18.63;;;10.05;;
53505;SDS011;39388;50.936;6.848;2022-10-18T18:42:09;14.88;;;9.98;;
53505;SDS011;39388;50.936;6.848;2022-10-18T18:44:39;16.38;;;9.38;;
53505;SDS011;39388;50.936;6.848;2022-10-18T18:47:14;16.48;;;9.60;;
53505;SDS011;39388;50.936;6.848;2022-10-18T18:49:45;88.68;;;48.55;;
53505;SDS011;39388;50.936;6.848;2022-10-18T18:52:15;30.17;;;15.32;;
53505;SDS011;39388;50.936;6.848;2022-10-18T18:54:45;19.73;;;11.13;;
53505;SDS011;39388;50.936;6.848;2022-10-18T18:57:16;39.63;;;21.35;;
53505;SDS011;39388;50.936;6.848;2022-10-18T18:59:46;18.98;;;11.43;;
53505;SDS011;39388;50.936;6.848;2022-10-18T19:02:17;29.65;;;15.90;;
53505;SDS011;39388;50.936;6.848;2022-10-18T19:04:47;22.55;;;14.07;;
53505;SDS011;39388;50.936;6.848;2022-10-18T19:07:17;23.13;;;17.00;;
53505;SDS011;39388;50.936;6.848;2022-10-18T19:09:48;16.40;;;11.70;;
53505;SDS011;39388;50.936;6.848;2022-10-18T19:12:19;20.75;;;10.90;;
53505;SDS011;39388;50.936;6.848;2022-10-18T19:14:50;20.65;;;10.50;;
53505;SDS011;39388;50.936;6.848;2022-10-18T19:17:20;24.08;;;10.48;;
53505;SDS011;39388;50.936;6.848;2022-10-18T19:19:52;15.52;;;9.55;;
53505;SDS011;39388;50.936;6.848;2022-10-18T19:22:23;17.73;;;10.70;;
53505;SDS011;39388;50.936;6.848;2022-10-18T19:24:53;19.05;;;10.30;;
53505;SDS011;39388;50.936;6.848;2022-10-18T19:27:24;16.75;;;10.13;;
53505;SDS011;39388;50.936;6.848;2022-10-18T19:29:54;15.07;;;9.65;;
53505;SDS011;39388;50.936;6.848;2022-10-18T19:32:25;18.35;;;9.68;;
53505;SDS011;39388;50.936;6.848;2022-10-18T19:34:55;16.15;;;9.90;;
53505;SDS011;39388;50.936;6.848;2022-10-18T19:37:25;15.48;;;10.52;;
53505;SDS011;39388;50.936;6.848;2022-10-18T19:39:56;19.02;;;10.45;;
53505;SDS011;39388;50.936;6.848;2022-10-18T19:42:27;18.65;;;11.75;;
53505;SDS011;39388;50.936;6.848;2022-10-18T19:44:58;19.20;;;10.48;;
53505;SDS011;39388;50.936;6.848;2022-10-18T19:47:28;16.73;;;11.05;;
53505;SDS011;39388;50.936;6.848;2022-10-18T19:49:58;23.52;;;11.50;;
53505;SDS011;39388;50.936;6.848;2022-10-18T19:52:29;15.65;;;11.10;;